Time;durP1;ratioP1;P1;durP2;ratioP2;P2;SDS_P1;SDS_P2;PMS_P1;PMS_P2;Temp;Humidity;BMP_temperature;BMP_pressure;BME280_temperature;BME280_humidity;BME280_pressure;Samples;Min_cycle;Max_cycle;Signal;HPM_P1;HPM_P2
2021/09/29 00:02:12;;;;;;;11.07;5.18;;;;;;;-139.48;100.00;61774.03;4999075;28;20069;-68
2021/09/29 00:04:56;;;;;;;8.20;5.25;;;;;;;-139.48;100.00;61774.03;4998712;28;20056;-68
2021/09/29 00:07:40;;;;;;;6.60;4.75;;;;;;;-139.48;100.00;61774.03;4998563;28;20056;-68
2021/09/29 00:10:24;;;;;;;7.88;5.05;;;;;;;-139.48;100.00;61774.03;5012351;28;20108;-68
2021/09/29 00:13:09;;;;;;;8.55;4.88;;;;;;;-139.48;100.00;61774.03;5012575;28;20072;-68
2021/09/29 00:15:54;;;;;;;10.52;4.85;;;;;;;-139.48;100.00;61774.03;5013563;28;20095;-68
2021/09/29 00:18:38;;;;;;;5.47;4.78;;;;;;;-139.48;100.00;61774.03;5012535;28;20045;-68
2021/09/29 00:21:22;;;;;;;;;;;;;;;-139.48;100.00;61774.03;5012959;28;20104;-68
2021/09/29 00:24:06;;;;;;;5.43;4.68;;;;;;;-139.48;100.00;61774.03;5013140;28;19920;-68
2021/09/29 00:26:50;;;;;;;6.72;4.78;;;;;;;-139.48;100.00;61774.03;4998566;28;20199;-68
2021/09/29 00:29:34;;;;;;;8.05;5.00;;;;;;;-139.48;100.00;61774.03;4998841;28;20099;-68
2021/09/29 00:32:19;;;;;;;10.77;4.80;;;;;;;-139.48;100.00;61774.03;5013366;28;20045;-68
2021/09/29 00:35:03;;;;;;;10.00;5.28;;;;;;;-139.48;100.00;61774.03;5012109;28;20141;-68
2021/09/29 00:37:47;;;;;;;7.25;4.72;;;;;;;-139.48;100.00;61774.03;4998490;28;20056;-68
2021/09/29 00:40:30;;;;;;;6.20;5.05;;;;;;;-139.48;100.00;61774.03;5012343;28;20053;-68
2021/09/29 00:43:15;;;;;;;6.90;5.05;;;;;;;-139.48;100.00;61774.03;5013142;28;20469;-68
2021/09/29 00:45:59;;;;;;;6.90;5.15;;;;;;;-139.48;100.00;61774.03;5012189;28;20100;-68
2021/09/29 00:48:43;;;;;;;5.03;4.38;;;;;;;-139.48;100.00;61774.03;5012274;28;20411;-68
2021/09/29 00:51:27;;;;;;;8.10;5.53;;;;;;;-139.48;100.00;61774.03;5013328;28;20467;-68
2021/09/29 00:54:11;;;;;;;11.00;5.50;;;;;;;-139.48;100.00;61774.03;4998185;28;20045;-68
2021/09/29 00:56:56;;;;;;;8.55;4.57;;;;;;;-139.48;100.00;61774.03;5013199;28;20076;-68
2021/09/29 00:59:41;;;;;;;8.73;5.20;;;;;;;-139.48;100.00;61774.03;5011911;28;20186;-68
2021/09/29 01:02:24;;;;;;;7.70;5.03;;;;;;;-139.48;100.00;61774.03;5013163;28;20064;-68
2021/09/29 01:05:10;;;;;;;8.70;4.93;;;;;;;-139.48;100.00;61774.03;5012085;28;20123;-68
2021/09/29 01:08:01;;;;;;;9.05;5.18;;;;;;;-139.48;100.00;61774.03;4998295;28;20116;-68
2021/09/29 01:10:59;;;;;;;7.45;5.18;;;;;;;-139.48;100.00;61774.03;5012074;28;20419;-68
2021/09/29 01:14:05;;;;;;;11.60;5.18;;;;;;;-139.48;100.00;61774.03;5012042;28;20141;-68
2021/09/29 01:16:50;;;;;;;8.60;5.95;;;;;;;-139.48;100.00;61774.03;5011688;28;20572;-68
2021/09/29 01:19:46;;;;;;;9.73;5.40;;;;;;;-139.48;100.00;61774.03;4998676;28;20513;-68
2021/09/29 01:22:42;;;;;;;5.97;5.38;;;;;;;-139.48;100.00;61774.03;5016440;28;20125;-68
2021/09/29 01:25:45;;;;;;;14.75;5.50;;;;;;;-139.48;100.00;61774.03;5001382;28;20092;-68
2021/09/29 01:28:39;;;;;;;9.00;5.72;;;;;;;-139.48;100.00;61774.03;5016376;28;20064;-68
2021/09/29 01:31:23;;;;;;;11.38;5.78;;;;;;;-139.48;100.00;61774.03;5015355;28;20144;-68
2021/09/29 01:34:08;;;;;;;10.55;5.45;;;;;;;-139.48;100.00;61774.03;5015225;28;20100;-67
2021/09/29 01:36:52;;;;;;;12.15;5.75;;;;;;;-139.48;100.00;61774.03;5001207;28;20049;-68
2021/09/29 01:39:37;;;;;;;8.20;5.45;;;;;;;-139.48;100.00;61774.03;5014909;28;20052;-68
2021/09/29 01:42:23;;;;;;;9.85;5.85;;;;;;;-139.48;100.00;61774.03;5015213;28;20057;-68
2021/09/29 01:45:07;;;;;;;11.88;6.22;;;;;;;-139.48;100.00;61774.03;5015986;28;20134;-68
2021/09/29 01:47:52;;;;;;;8.27;5.57;;;;;;;-139.48;100.00;61774.03;5014684;28;20096;-68
2021/09/29 01:50:37;;;;;;;11.23;6.38;;;;;;;-139.48;100.00;61774.03;5016143;28;20133;-68
2021/09/29 01:53:21;;;;;;;9.63;6.20;;;;;;;-139.48;100.00;61774.03;5014689;28;20056;-68
2021/09/29 01:56:05;;;;;;;10.25;6.55;;;;;;;-139.48;100.00;61774.03;5015015;28;20552;-68
2021/09/29 01:58:49;;;;;;;8.80;6.35;;;;;;;-139.48;100.00;61774.03;5014827;28;20049;-67
2021/09/29 02:01:42;;;;;;;10.73;7.22;;;;;;;-139.48;100.00;61774.03;5014728;28;20069;-68
2021/09/29 02:04:26;;;;;;;14.90;7.10;;;;;;;-139.48;100.00;61774.03;5014698;28;20129;-68
2021/09/29 02:07:11;;;;;;;10.60;7.05;;;;;;;-139.48;100.00;61774.03;5015434;28;20414;-68
2021/09/29 02:09:54;;;;;;;14.60;7.53;;;;;;;-139.48;100.00;61774.03;5000935;28;20044;-67
2021/09/29 02:12:38;;;;;;;14.52;8.25;;;;;;;-139.48;100.00;61774.03;5015572;28;20541;-67
2021/09/29 02:15:22;;;;;;;14.48;8.25;;;;;;;-139.48;100.00;61774.03;5014246;28;20107;-67
2021/09/29 02:18:07;;;;;;;12.75;8.30;;;;;;;-139.48;100.00;61774.03;5014035;28;20481;-68
2021/09/29 02:20:52;;;;;;;14.70;9.00;;;;;;;-139.48;100.00;61774.03;5014602;28;20056;-67
2021/09/29 02:23:36;;;;;;;15.95;8.90;;;;;;;-139.48;100.00;61774.03;5000715;28;20049;-68
2021/09/29 02:26:20;;;;;;;19.42;11.00;;;;;;;-139.48;100.00;61774.03;5014896;28;20053;-68
2021/09/29 02:29:05;;;;;;;17.25;9.45;;;;;;;-139.48;100.00;61774.03;5014106;28;20190;-67
2021/09/29 02:31:49;;;;;;;15.48;9.50;;;;;;;-139.48;100.00;61774.03;5000031;28;20132;-67
2021/09/29 02:34:33;;;;;;;15.00;10.30;;;;;;;-139.48;100.00;61774.03;5015081;28;20052;-68
2021/09/29 02:37:17;;;;;;;19.00;10.48;;;;;;;-139.48;100.00;61774.03;5013788;28;20096;-67
2021/09/29 02:40:02;;;;;;;13.95;9.57;;;;;;;-139.48;100.00;61774.03;5015005;28;20545;-67
2021/09/29 02:42:46;;;;;;;18.05;10.27;;;;;;;-139.48;100.00;61774.03;5013976;28;20518;-68
2021/09/29 02:45:30;;;;;;;16.63;10.32;;;;;;;-139.48;100.00;61774.03;5013725;28;20576;-67
2021/09/29 02:48:14;;;;;;;23.00;10.13;;;;;;;-139.48;100.00;61774.03;5014536;28;20048;-67
2021/09/29 02:50:58;;;;;;;16.67;10.10;;;;;;;-139.48;100.00;61774.03;4999999;28;20119;-68
2021/09/29 02:53:42;;;;;;;18.00;10.13;;;;;;;-139.48;100.00;61774.03;5013769;28;20049;-68
2021/09/29 02:56:26;;;;;;;15.15;10.32;;;;;;;-139.48;100.00;61774.03;4999803;28;20068;-68
2021/09/29 02:59:10;;;;;;;15.10;9.68;;;;;;;-139.48;100.00;61774.03;5013677;28;20140;-67
2021/09/29 03:01:54;;;;;;;14.13;9.77;;;;;;;-139.48;100.00;61774.03;5013481;28;20080;-67
2021/09/29 03:04:38;;;;;;;12.10;8.90;;;;;;;-139.48;100.00;61774.03;5013770;28;20049;-68
2021/09/29 03:07:22;;;;;;;14.38;9.52;;;;;;;-139.48;100.00;61774.03;4999606;28;20053;-68
2021/09/29 03:10:06;;;;;;;15.60;9.13;;;;;;;-139.48;100.00;61774.03;5013365;28;20523;-67
2021/09/29 03:12:49;;;;;;;15.77;8.80;;;;;;;-139.48;100.00;61774.03;5014186;28;20129;-68
2021/09/29 03:15:34;;;;;;;15.30;9.63;;;;;;;-139.48;100.00;61774.03;5013361;28;20489;-67
2021/09/29 03:18:18;;;;;;;11.85;8.45;;;;;;;-139.48;100.00;61774.03;5000630;28;20414;-67
2021/09/29 03:21:02;;;;;;;16.33;8.65;;;;;;;-139.48;100.00;61774.03;4999452;28;20052;-68
2021/09/29 03:23:46;;;;;;;13.65;9.07;;;;;;;-139.48;100.00;61774.03;5013290;28;20480;-67
2021/09/29 03:26:30;;;;;;;16.42;9.40;;;;;;;-139.48;100.00;61774.03;5013058;28;20093;-68
2021/09/29 03:29:14;;;;;;;14.27;8.82;;;;;;;-139.48;100.00;61774.03;5012906;28;20048;-68
2021/09/29 03:31:58;;;;;;;15.05;8.63;;;;;;;-139.48;100.00;61774.03;5012883;28;20137;-67
2021/09/29 03:34:42;;;;;;;11.50;8.60;;;;;;;-139.48;100.00;61774.03;5013075;28;20406;-68
2021/09/29 03:37:26;;;;;;;13.38;9.38;;;;;;;-139.48;100.00;61774.03;5012727;28;20047;-68
2021/09/29 03:40:12;;;;;;;16.10;9.32;;;;;;;-139.48;100.00;61774.03;5013015;28;20084;-67
2021/09/29 03:42:57;;;;;;;12.82;9.07;;;;;;;-139.48;100.00;61774.03;4998277;28;20132;-67
2021/09/29 03:45:40;;;;;;;15.25;8.48;;;;;;;-139.48;100.00;61774.03;4998868;28;20057;-67
2021/09/29 03:48:24;;;;;;;14.70;9.60;;;;;;;-139.48;100.00;61774.03;5014147;28;20407;-68
2021/09/29 03:51:08;;;;;;;17.73;9.25;;;;;;;-139.48;100.00;61774.03;5012845;28;20053;-68
2021/09/29 03:53:52;;;;;;;17.42;9.85;;;;;;;-139.48;100.00;61774.03;5013549;28;20100;-68
2021/09/29 03:56:36;;;;;;;21.60;9.68;;;;;;;-139.48;100.00;61774.03;5012462;28;20092;-68
2021/09/29 03:59:20;;;;;;;24.17;10.07;;;;;;;-139.48;100.00;61774.03;5012746;28;20137;-68
2021/09/29 04:02:04;;;;;;;14.48;9.35;;;;;;;-139.48;100.00;61774.03;5012436;28;20045;-67
2021/09/29 04:04:48;;;;;;;15.70;8.65;;;;;;;-139.48;100.00;61774.03;5012633;28;20068;-67
2021/09/29 04:07:32;;;;;;;18.92;9.65;;;;;;;-139.48;100.00;61774.03;4998385;28;20414;-68
2021/09/29 04:10:16;;;;;;;15.75;9.32;;;;;;;-139.48;100.00;61774.03;5013359;28;20129;-68
2021/09/29 04:13:00;;;;;;;15.10;9.98;;;;;;;-139.48;100.00;61774.03;5013356;28;20104;-68
2021/09/29 04:15:44;;;;;;;12.98;9.55;;;;;;;-139.48;100.00;61774.03;5012603;28;20053;-68
2021/09/29 04:18:28;;;;;;;13.40;9.57;;;;;;;-139.48;100.00;61774.03;5013292;28;20052;-67
2021/09/29 04:21:12;;;;;;;14.88;10.35;;;;;;;-139.48;100.00;61774.03;5012487;28;20403;-67
2021/09/29 04:23:57;;;;;;;14.82;9.63;;;;;;;-139.48;100.00;61774.03;5012530;28;20049;-68
2021/09/29 04:26:41;;;;;;;17.10;10.48;;;;;;;-139.48;100.00;61774.03;5012840;28;20061;-68
2021/09/29 04:29:25;;;;;;;15.80;10.05;;;;;;;-139.48;100.00;61774.03;5012400;28;20111;-68
2021/09/29 04:32:10;;;;;;;18.05;9.98;;;;;;;-139.48;100.00;61774.03;5012435;28;20049;-68
2021/09/29 04:34:54;;;;;;;21.17;10.27;;;;;;;-139.48;100.00;61774.03;5012438;28;20045;-68
2021/09/29 04:37:38;;;;;;;16.85;10.68;;;;;;;-139.48;100.00;61774.03;5012215;28;20413;-67
2021/09/29 04:40:22;;;;;;;12.75;9.88;;;;;;;-139.48;100.00;61774.03;5013405;28;20053;-67
2021/09/29 04:43:06;;;;;;;15.43;9.32;;;;;;;-139.48;100.00;61774.03;5013621;28;20103;-68
2021/09/29 04:45:50;;;;;;;12.68;8.50;;;;;;;-139.48;100.00;61774.03;5011983;28;20108;-67
2021/09/29 04:48:34;;;;;;;15.93;8.48;;;;;;;-139.48;100.00;61774.03;4998160;28;20052;-67
2021/09/29 04:51:18;;;;;;;13.93;8.52;;;;;;;-139.48;100.00;61774.03;5012323;28;20571;-67
2021/09/29 04:54:02;;;;;;;13.52;7.90;;;;;;;-139.48;100.00;61774.03;5013331;28;20095;-67
2021/09/29 04:56:46;;;;;;;13.27;7.78;;;;;;;-139.48;100.00;61774.03;5001986;28;20092;-67
2021/09/29 04:59:29;;;;;;;9.88;7.57;;;;;;;-139.48;100.00;61774.03;5001796;28;20053;-67
2021/09/29 05:02:14;;;;;;;14.52;7.90;;;;;;;-139.48;100.00;61774.03;5016571;28;20137;-68
2021/09/29 05:04:58;;;;;;;9.70;7.00;;;;;;;-139.48;100.00;61774.03;5015692;28;20088;-67
2021/09/29 05:07:47;;;;;;;9.75;6.82;;;;;;;-139.48;100.00;61774.03;5016449;28;20529;-67
2021/09/29 05:10:55;;;;;;;14.80;7.80;;;;;;;-139.48;100.00;61774.03;5015697;28;20058;-68
2021/09/29 05:13:39;;;;;;;8.93;6.18;;;;;;;-139.48;100.00;61774.03;5015369;28;20584;-67
2021/09/29 05:16:23;;;;;;;12.40;6.50;;;;;;;-139.48;100.00;61774.03;5015642;28;20049;-67
2021/09/29 05:19:07;;;;;;;9.98;6.43;;;;;;;-139.48;100.00;61774.03;5001750;28;20044;-67
2021/09/29 05:21:51;;;;;;;12.50;6.50;;;;;;;-139.48;100.00;61774.03;5015100;28;20056;-67
2021/09/29 05:24:35;;;;;;;10.85;7.15;;;;;;;-139.48;100.00;61774.03;5001551;28;20049;-68
2021/09/29 05:27:19;;;;;;;15.85;7.25;;;;;;;-139.48;100.00;61774.03;5016456;28;20570;-68
2021/09/29 05:30:03;;;;;;;13.98;7.35;;;;;;;-139.48;100.00;61774.03;5001175;28;20104;-67
2021/09/29 05:32:47;;;;;;;11.43;7.07;;;;;;;-139.48;100.00;61774.03;5015084;28;20049;-67
2021/09/29 05:35:31;;;;;;;10.80;6.85;;;;;;;-139.48;100.00;61774.03;5015258;28;20056;-67
2021/09/29 05:38:15;;;;;;;10.52;7.03;;;;;;;-139.48;100.00;61774.03;5014778;28;20521;-67
2021/09/29 05:40:59;;;;;;;11.80;7.00;;;;;;;-139.48;100.00;61774.03;5015111;28;20068;-68
2021/09/29 05:43:43;;;;;;;9.10;6.53;;;;;;;-139.48;100.00;61774.03;5015812;28;20100;-67
2021/09/29 05:46:29;;;;;;;12.88;7.20;;;;;;;-139.48;100.00;61774.03;5015629;28;20048;-67
2021/09/29 05:49:13;;;;;;;13.40;7.40;;;;;;;-139.48;100.00;61774.03;5015887;28;20045;-67
2021/09/29 05:51:57;;;;;;;13.75;7.20;;;;;;;-139.48;100.00;61774.03;5014981;28;20084;-67
2021/09/29 05:54:41;;;;;;;13.75;7.07;;;;;;;-139.48;100.00;61774.03;5014877;28;20454;-68
2021/09/29 05:57:25;;;;;;;11.95;7.13;;;;;;;-139.48;100.00;61774.03;5014596;28;20044;-68
2021/09/29 06:00:09;;;;;;;16.05;7.15;;;;;;;-139.48;100.00;61774.03;5015808;28;20099;-68
2021/09/29 06:02:53;;;;;;;8.65;6.50;;;;;;;-139.48;100.00;61774.03;5001132;28;20108;-68
2021/09/29 06:05:37;;;;;;;12.00;7.30;;;;;;;11.10;100.00;101286.34;5013800;28;20091;-68
2021/09/29 06:08:21;;;;;;;14.20;6.90;;;;;;;12.83;100.00;100716.69;5014580;28;20081;-68
2021/09/29 06:11:05;;;;;;;12.85;7.38;;;;;;;12.81;100.00;100725.84;5014906;28;20079;-68
2021/09/29 06:13:49;;;;;;;12.52;7.00;;;;;;;12.83;100.00;100723.88;5000709;28;20061;-67
2021/09/29 06:16:35;;;;;;;10.15;6.90;;;;;;;12.85;100.00;100729.94;5014103;28;20512;-67
2021/09/29 06:19:19;;;;;;;12.82;7.60;;;;;;;12.91;100.00;100732.84;5014223;28;20133;-67
2021/09/29 06:22:05;;;;;;;13.52;8.48;;;;;;;12.91;100.00;100732.84;5014134;28;20100;-67
2021/09/29 06:24:49;;;;;;;12.32;7.75;;;;;;;12.98;100.00;100733.13;5013934;28;20176;-68
2021/09/29 06:27:33;;;;;;;14.98;7.55;;;;;;;13.00;100.00;100736.50;5014053;28;20096;-68
2021/09/29 06:30:17;;;;;;;10.63;7.50;;;;;;;12.97;100.00;100740.28;5014336;28;20079;-67
2021/09/29 06:33:02;;;;;;;11.13;7.82;;;;;;;12.97;100.00;61774.03;5000279;28;20129;-67
2021/09/29 06:35:46;;;;;;;10.98;7.80;;;;;;;-139.48;100.00;61774.03;5015161;28;20040;-67
2021/09/29 06:38:31;;;;;;;11.43;6.95;;;;;;;-139.48;100.00;61774.03;5014851;28;20056;-68
2021/09/29 06:41:15;;;;;;;13.18;7.68;;;;;;;-139.48;100.00;61774.03;5013859;28;20180;-67
2021/09/29 06:43:59;;;;;;;10.60;7.13;;;;;;;-139.48;100.00;61774.03;5013981;28;20064;-67
2021/09/29 06:46:43;;;;;;;11.10;6.90;;;;;;;-139.48;100.00;61774.03;5013801;28;20045;-67
2021/09/29 06:49:27;;;;;;;11.68;6.57;;;;;;;-139.48;100.00;61774.03;5013911;28;20132;-68
2021/09/29 06:52:11;;;;;;;12.63;6.45;;;;;;;-139.48;100.00;61774.03;5014527;28;20483;-67
2021/09/29 06:54:55;;;;;;;8.38;6.80;;;;;;;-139.48;100.00;61774.03;5015021;28;20125;-67
2021/09/29 06:57:40;;;;;;;10.65;6.80;;;;;;;-139.48;100.00;61774.03;5013504;28;20052;-68
2021/09/29 07:00:25;;;;;;;13.05;5.82;;;;;;;-139.48;100.00;61774.03;5013492;28;20048;-68
2021/09/29 07:03:10;;;;;;;11.57;6.13;;;;;;;-139.48;100.00;61774.03;5013584;28;20498;-68
2021/09/29 07:05:55;;;;;;;10.07;6.13;;;;;;;12.97;100.00;100736.78;5013582;28;20099;-68
2021/09/29 07:08:39;;;;;;;9.90;5.88;;;;;;;13.47;100.00;100741.56;5014360;28;20118;-68
2021/09/29 07:11:23;;;;;;;10.15;5.63;;;;;;;13.57;100.00;100738.84;5013500;28;20081;-68
2021/09/29 07:14:07;;;;;;;6.70;5.30;;;;;;;13.65;100.00;100737.06;5013220;28;20061;-67
2021/09/29 07:16:54;;;;;;;8.52;4.75;;;;;;;13.79;100.00;100730.34;5013590;28;20104;-68
2021/09/29 07:19:39;;;;;;;13.27;4.85;;;;;;;13.96;100.00;100732.19;5014111;28;20088;-67
2021/09/29 07:22:25;;;;;;;7.45;4.40;;;;;;;14.14;100.00;100738.34;5013032;28;20549;-67
2021/09/29 07:25:09;;;;;;;6.25;4.32;;;;;;;14.24;100.00;100741.81;5013096;28;20120;-68
2021/09/29 07:27:54;;;;;;;8.38;4.13;;;;;;;14.39;100.00;100740.25;5013872;28;20096;-68
2021/09/29 07:30:40;;;;;;;8.55;4.15;;;;;;;14.51;100.00;100739.00;5012873;28;20048;-68
2021/09/29 07:33:24;;;;;;;9.60;4.00;;;;;;;14.71;100.00;100735.91;5012888;28;20052;-68
2021/09/29 07:36:08;;;;;;;5.00;3.30;;;;;;;14.71;100.00;100735.91;5012803;28;20064;-68
2021/09/29 07:38:52;;;;;;;9.50;3.58;;;;;;;15.06;100.00;100738.47;5013302;28;20053;-68
2021/09/29 07:41:37;;;;;;;4.63;3.25;;;;;;;-138.20;100.00;101178.00;5012783;28;20092;-68
2021/09/29 07:44:22;;;;;;;4.25;2.72;;;;;;;15.19;100.00;100729.97;5012576;28;20056;-68
2021/09/29 07:47:06;;;;;;;7.00;3.28;;;;;;;15.38;100.00;100729.69;5013139;28;20045;-68
2021/09/29 07:49:50;;;;;;;5.90;2.92;;;;;;;15.42;100.00;100723.81;5012889;28;20537;-67
2021/09/29 07:52:34;;;;;;;4.70;2.85;;;;;;;15.51;100.00;100719.34;5012639;28;20067;-68
2021/09/29 07:55:20;;;;;;;6.90;3.00;;;;;;;15.69;100.00;100724.41;5013833;28;20089;-68
2021/09/29 07:58:04;;;;;;;5.60;3.03;;;;;;;15.98;96.21;100718.53;4998577;28;20108;-67
2021/09/29 08:00:48;;;;;;;11.10;3.53;;;;;;;16.34;94.29;100723.41;5013062;28;20119;-68
2021/09/29 08:03:32;;;;;;;7.85;2.53;;;;;;;16.51;90.95;100725.09;4998672;28;20057;-68
2021/09/29 08:06:16;;;;;;;6.10;2.63;;;;;;;16.66;92.16;100726.06;4998743;28;20049;-68
2021/09/29 08:09:00;;;;;;;9.35;2.47;;;;;;;16.77;90.47;100728.38;5012504;28;20104;-68
2021/09/29 08:11:44;;;;;;;7.97;2.50;;;;;;;16.77;90.47;100728.38;5012736;28;20049;-68
2021/09/29 08:14:28;;;;;;;8.93;2.10;;;;;;;16.73;87.15;100736.97;5012644;28;20537;-67
2021/09/29 08:17:11;;;;;;;5.32;1.90;;;;;;;16.66;86.34;100741.34;4998291;28;20048;-67
2021/09/29 08:19:55;;;;;;;3.90;2.05;;;;;;;16.68;86.24;100740.19;5012394;28;20048;-67
2021/09/29 08:22:40;;;;;;;3.95;1.95;;;;;;;16.76;85.76;100742.88;5013311;28;20045;-67
2021/09/29 08:25:52;;;;;;;8.38;2.38;;;;;;;17.07;85.10;100741.09;5013540;28;20192;-68
2021/09/29 08:31:45;;;;;;;5.45;2.08;;;;;;;17.34;82.80;100740.63;5016804;28;20111;-68
2021/09/29 08:35:25;;;;;;;4.88;2.63;;;;;;;17.14;82.63;100747.47;5017727;28;20169;-68
2021/09/29 08:37:48;;;;;;;3.72;2.13;;;;;;;17.14;82.46;100742.06;5016032;28;20403;-68
2021/09/29 08:40:50;;;;;;;3.25;1.83;;;;;;;17.22;83.43;100738.50;5017315;28;20048;-68
2021/09/29 08:43:45;;;;;;;4.28;1.77;;;;;;;17.27;80.59;100758.50;5016471;28;20053;-68
2021/09/29 09:16:39;;;;;;;4.53;1.70;;;;;;;-139.48;100.00;61774.03;5015403;28;20057;-67
2021/09/29 09:19:28;;;;;;;5.38;1.95;;;;;;;-139.48;100.00;61774.03;5016958;28;20533;-68
2021/09/29 09:22:14;;;;;;;6.00;1.58;;;;;;;-139.48;100.00;61774.03;5015586;28;20468;-67
2021/09/29 09:24:58;;;;;;;5.35;1.63;;;;;;;-139.48;100.00;61774.03;5015466;28;20057;-68
2021/09/29 09:27:45;;;;;;;5.35;1.63;;;;;;;-139.48;100.00;61774.03;5001290;28;20513;-67
2021/09/29 09:30:32;;;;;;;4.07;1.67;;;;;;;-139.48;100.00;61774.03;5015132;28;20461;-68
2021/09/29 09:33:25;;;;;;;3.70;1.38;;;;;;;-139.48;100.00;61774.03;5016565;28;20053;-68
2021/09/29 09:36:09;;;;;;;8.88;1.75;;;;;;;-139.48;100.00;61774.03;5014952;28;20045;-68
2021/09/29 09:38:53;;;;;;;3.53;1.52;;;;;;;-139.48;100.00;61774.03;5015049;28;20084;-67
2021/09/29 09:41:37;;;;;;;6.97;2.65;;;;;;;-139.48;100.00;61774.03;5013877;28;20131;-68
2021/09/29 09:44:32;;;;;;;4.35;1.40;;;;;;;-139.48;100.00;61774.03;5015921;28;20056;-68
2021/09/29 09:47:19;;;;;;;6.30;1.45;;;;;;;-139.48;100.00;61774.03;5014954;28;20493;-68
2021/09/29 09:50:04;;;;;;;3.38;1.35;;;;;;;-139.48;100.00;61774.03;5014967;28;20044;-68
2021/09/29 09:52:48;;;;;;;4.88;1.77;;;;;;;-139.48;100.00;61774.03;5014915;28;20466;-68
2021/09/29 09:55:36;;;;;;;3.72;1.50;;;;;;;-139.48;100.00;61774.03;5016261;28;20144;-68
2021/09/29 09:58:20;;;;;;;3.83;1.45;;;;;;;-139.48;100.00;61774.03;5000738;28;20052;-68
2021/09/29 10:01:04;;;;;;;6.82;1.55;;;;;;;-139.48;100.00;61774.03;5015872;28;20052;-68
2021/09/29 10:03:50;;;;;;;5.00;1.50;;;;;;;-139.48;100.00;61774.03;5014622;28;20099;-68
2021/09/29 10:06:34;;;;;;;4.82;1.70;;;;;;;-139.48;100.00;61774.03;5014601;28;20655;-67
2021/09/29 10:09:35;;;;;;;7.65;1.85;;;;;;;-139.48;100.00;61774.03;5015376;28;20518;-68
2021/09/29 10:26:08;;;;;;;4.38;1.77;;;;;;;-139.48;100.00;61774.03;5014559;28;20440;-68
2021/09/29 10:27:23;;;;;;;5.28;1.40;;;;;;;-139.48;100.00;61774.03;5012347;28;20521;-68
2021/09/29 10:30:11;;;;;;;3.22;1.30;;;;;;;-139.48;100.00;61774.03;5015545;28;20525;-68
2021/09/29 10:32:59;;;;;;;5.30;1.45;;;;;;;-139.48;100.00;61774.03;5014000;28;20069;-68
2021/09/29 10:36:20;;;;;;;8.05;1.65;;;;;;;-139.48;100.00;61774.03;5014231;28;20529;-68
2021/09/29 10:42:25;;;;;;;2.97;1.25;;;;;;;18.30;0.00;93502.38;5015133;28;20092;-68
2021/09/29 10:48:21;;;;;;;4.63;1.20;;;;;;;23.29;47.89;100676.59;5013620;28;20086;-68
2021/09/29 11:03:46;;;;;;;4.82;1.40;;;;;;;20.12;61.09;100664.00;5013784;28;20128;-68
2021/09/29 11:27:25;;;;;;;;;;;;;;;20.59;60.06;100673.09;5014896;28;20053;-68
2021/09/29 11:31:00;;;;;;;6.28;2.10;;;;;;;15.94;100.00;100709.97;5013212;28;20406;-67
2021/09/29 11:34:00;;;;;;;6.88;1.60;;;;;;;15.81;100.00;100703.41;5013047;28;20045;-67
2021/09/29 11:40:07;;;;;;;8.77;2.20;;;;;;;15.75;100.00;100702.22;5013394;28;20100;-67
2021/09/29 12:10:26;;;;;;;3.70;1.58;;;;;;;19.01;89.95;100732.19;5012713;28;20049;-67
2021/09/29 12:13:10;;;;;;;4.47;1.13;;;;;;;18.66;87.94;100700.53;5013492;28;20095;-67
2021/09/29 12:15:54;;;;;;;4.18;1.42;;;;;;;18.33;91.75;100703.72;5012577;28;20048;-67
2021/09/29 12:18:38;;;;;;;2.67;1.20;;;;;;;18.16;92.09;100708.41;5012877;28;20104;-67
2021/09/29 12:21:35;;;;;;;4.75;1.35;;;;;;;17.83;92.93;100712.38;5013264;28;20553;-67
2021/09/29 12:24:42;;;;;;;3.30;1.33;;;;;;;17.79;94.88;100712.94;5013013;28;20411;-67
2021/09/29 12:30:32;;;;;;;2.97;1.20;;;;;;;17.25;100.00;100712.03;5013709;28;20084;-67
2021/09/29 12:36:30;;;;;;;10.18;1.52;;;;;;;16.62;100.00;100764.25;5013616;28;20045;-66
2021/09/29 12:39:22;;;;;;;7.85;1.70;;;;;;;16.19;100.00;100786.94;4998203;28;20048;-64
2021/09/29 12:42:07;;;;;;;5.32;1.52;;;;;;;15.63;100.00;100782.50;4998881;28;20410;-64
2021/09/29 12:44:51;;;;;;;3.28;1.38;;;;;;;15.17;100.00;100791.03;5012342;28;20049;-64
2021/09/29 12:47:44;;;;;;;5.78;1.30;;;;;;;14.91;100.00;100784.88;4998336;28;20076;-65
2021/09/29 12:50:39;;;;;;;4.15;1.10;;;;;;;14.76;100.00;100784.59;5012241;28;20048;-64
2021/09/29 12:53:39;;;;;;;;;;;;;;;14.64;100.00;100779.66;5013754;28;20076;-65
2021/09/29 12:56:23;;;;;;;4.68;1.02;;;;;;;14.41;100.00;100797.25;5012118;28;20329;-64
2021/09/29 12:59:07;;;;;;;1.75;0.93;;;;;;;14.29;100.00;100807.38;5012275;28;20049;-64
2021/09/29 13:01:51;;;;;;;1.98;0.77;;;;;;;14.13;100.00;100803.69;4998134;28;20133;-65
2021/09/29 13:04:35;;;;;;;1.50;0.60;;;;;;;13.98;100.00;100815.97;5012387;28;20149;-65
2021/09/29 13:07:19;;;;;;;8.93;1.02;;;;;;;13.87;100.00;100816.19;5013084;28;20045;-65
2021/09/29 13:10:03;;;;;;;0.80;0.80;;;;;;;13.85;100.00;100804.75;5012902;28;20052;-63
2021/09/29 13:12:51;;;;;;;2.72;1.10;;;;;;;13.70;100.00;100811.63;5011904;28;20129;-65
2021/09/29 13:15:40;;;;;;;2.65;0.90;;;;;;;13.71;100.00;100807.97;5015057;28;20565;-64
2021/09/29 13:21:36;;;;;;;1.70;0.80;;;;;;;13.71;100.00;100814.19;5015778;28;20052;-65
2021/09/29 13:24:31;;;;;;;3.00;0.90;;;;;;;13.84;100.00;100820.00;5015676;28;20204;-65
2021/09/29 13:39:18;;;;;;;1.08;0.82;;;;;;;13.69;100.00;100858.19;5015502;28;20069;-65
2021/09/29 13:42:02;;;;;;;5.22;1.10;;;;;;;13.59;100.00;100865.44;5015220;28;20056;-65
2021/09/29 13:44:46;;;;;;;2.42;0.80;;;;;;;13.61;100.00;100860.75;5015141;28;20052;-65
2021/09/29 13:47:30;;;;;;;0.65;0.60;;;;;;;13.55;100.00;100858.69;5015996;28;20052;-66
2021/09/29 13:50:16;;;;;;;2.75;0.68;;;;;;;13.53;100.00;100874.06;5015069;28;20049;-65
2021/09/29 13:53:01;;;;;;;2.70;1.08;;;;;;;13.55;100.00;100866.72;5015895;28;20576;-65
2021/09/29 13:55:47;;;;;;;3.85;1.00;;;;;;;13.51;100.00;100881.41;5016226;28;20116;-65
2021/09/29 13:58:43;;;;;;;2.88;0.80;;;;;;;13.49;100.00;100878.03;5014996;28;20548;-65
2021/09/29 14:01:59;;;;;;;1.42;1.10;;;;;;;13.63;100.00;100874.84;5015033;28;20530;-65
2021/09/29 14:29:09;;;;;;;2.17;0.70;;;;;;;16.26;100.00;100879.44;5015306;28;20124;-65
2021/09/29 14:34:37;;;;;;;0.95;0.68;;;;;;;15.63;100.00;100891.69;5014312;28;20052;-66
2021/09/29 14:37:21;;;;;;;4.13;0.98;;;;;;;15.61;100.00;100898.22;5015595;28;20048;-66
2021/09/29 14:40:05;;;;;;;2.53;0.85;;;;;;;15.51;100.00;100904.75;5014788;28;20052;-66
2021/09/29 14:42:54;;;;;;;5.10;0.90;;;;;;;15.46;100.00;100899.84;5000313;28;20509;-66
2021/09/29 14:45:39;;;;;;;3.35;0.98;;;;;;;15.36;100.00;100917.94;5014957;28;20139;-66
2021/09/29 14:48:23;;;;;;;3.17;0.80;;;;;;;15.21;100.00;100911.41;5013858;28;20084;-66
2021/09/29 14:51:08;;;;;;;2.20;1.00;;;;;;;15.23;100.00;100911.25;5013692;28;20064;-66
2021/09/29 14:53:55;;;;;;;3.40;1.23;;;;;;;15.12;100.00;100906.97;5013791;28;20049;-66
2021/09/29 14:56:39;;;;;;;1.85;1.00;;;;;;;15.13;100.00;100913.22;5014794;28;20113;-66
2021/09/29 14:59:23;;;;;;;0.80;0.80;;;;;;;14.99;100.00;100919.16;5013674;28;20414;-66
2021/09/29 15:02:08;;;;;;;1.70;0.90;;;;;;;15.10;100.00;100910.84;5014642;28;20125;-67
2021/09/29 15:04:52;;;;;;;1.80;0.85;;;;;;;15.01;100.00;100914.47;5013319;28;20133;-66
2021/09/29 15:07:36;;;;;;;2.20;0.90;;;;;;;15.08;100.00;100913.69;5013711;28;20057;-67
2021/09/29 15:10:20;;;;;;;0.98;0.82;;;;;;;15.13;100.00;100919.44;4999764;28;20129;-66
2021/09/29 15:13:05;;;;;;;2.95;1.00;;;;;;;15.33;100.00;100925.47;5013416;28;20467;-66
2021/09/29 15:16:02;;;;;;;1.20;1.10;;;;;;;15.62;100.00;100910.66;5013267;28;20064;-66
2021/09/29 15:21:57;;;;;;;3.28;1.05;;;;;;;16.65;100.00;100923.59;5015863;28;20099;-66
2021/09/29 15:24:47;;;;;;;1.65;0.52;;;;;;;17.66;97.70;100920.28;5000795;28;20044;-66